Time;durP1;ratioP1;P1;durP2;ratioP2;P2;SDS_P1;SDS_P2;PMS_P1;PMS_P2;Temp;Humidity;BMP_temperature;BMP_pressure;BME280_temperature;BME280_humidity;BME280_pressure;Samples;Min_cycle;Max_cycle;Signal;HPM_P1;HPM_P2
2022/01/16 00:01:21;;;;;;;11.70;7.93;;;;;;;4.13;84.88;100406.09;5132277;27;20212;-55
2022/01/16 00:04:06;;;;;;;11.10;7.77;;;;;;;4.06;85.17;100422.28;5131887;27;20276;-55
2022/01/16 00:06:33;;;;;;;10.63;7.23;;;;;;;4.14;84.73;100411.25;5131991;27;20209;-55
2022/01/16 00:09:00;;;;;;;12.40;8.70;;;;;;;4.16;84.04;100414.72;5132122;27;20223;-55
2022/01/16 00:11:28;;;;;;;13.67;8.53;;;;;;;4.09;84.35;100417.16;5132032;27;20285;-59
2022/01/16 00:13:56;;;;;;;11.50;8.27;;;;;;;4.03;85.07;100420.53;5132005;27;20614;-59
2022/01/16 00:16:23;;;;;;;11.27;8.13;;;;;;;4.08;85.28;100426.59;5132200;27;20281;-59
2022/01/16 00:18:52;;;;;;;12.33;8.60;;;;;;;4.15;85.29;100438.69;5132130;27;20637;-59
2022/01/16 00:21:20;;;;;;;10.03;8.07;;;;;;;4.10;85.25;100454.88;5131951;27;20221;-55
2022/01/16 00:23:47;;;;;;;10.57;7.73;;;;;;;4.08;84.59;100466.81;5132032;27;20204;-55
2022/01/16 00:26:15;;;;;;;13.67;8.73;;;;;;;4.01;84.92;100484.75;5131798;27;20358;-55
2022/01/16 00:28:42;;;;;;;10.63;8.37;;;;;;;4.16;85.21;100507.22;5131519;27;20601;-55
2022/01/16 00:31:10;;;;;;;11.50;7.83;;;;;;;3.98;85.16;100499.25;5131595;27;20237;-54
2022/01/16 00:33:42;;;;;;;14.00;8.93;;;;;;;4.01;85.84;100569.50;5131559;27;20222;-55
2022/01/16 00:36:10;;;;;;;12.67;8.37;;;;;;;4.02;86.08;100549.81;5131732;27;20224;-55
2022/01/16 00:38:39;;;;;;;11.87;7.37;;;;;;;3.86;85.44;100486.22;5131470;27;20193;-55
2022/01/16 00:41:06;;;;;;;12.03;8.37;;;;;;;3.97;85.36;100459.84;5131502;27;20198;-54
2022/01/16 00:43:33;;;;;;;12.37;8.40;;;;;;;3.89;85.69;100419.50;5131339;27;20198;-54
2022/01/16 00:46:00;;;;;;;10.30;8.03;;;;;;;3.88;85.78;100338.16;5131320;27;20197;-54
2022/01/16 00:48:28;;;;;;;10.63;7.97;;;;;;;3.94;85.41;100300.59;5131165;27;20221;-54
2022/01/16 00:50:56;;;;;;;9.53;7.67;;;;;;;3.91;84.93;100287.72;5131450;27;20290;-54
2022/01/16 00:53:22;;;;;;;11.70;8.27;;;;;;;3.90;84.96;100296.25;5131524;27;20204;-54
2022/01/16 00:55:49;;;;;;;11.87;7.67;;;;;;;3.97;84.68;100320.28;5131281;27;20299;-54
2022/01/16 00:58:16;;;;;;;10.10;7.93;;;;;;;3.88;85.05;100304.78;5131229;27;20281;-54
2022/01/16 01:00:43;;;;;;;9.70;7.47;;;;;;;3.86;84.98;100330.44;5131291;28;20225;-55
2022/01/16 01:03:11;;;;;;;10.37;7.50;;;;;;;3.74;85.54;100368.81;5131205;28;20197;-59
2022/01/16 01:05:39;;;;;;;13.20;7.80;;;;;;;3.84;85.72;100398.03;5131344;28;20204;-59
2022/01/16 01:08:07;;;;;;;12.87;7.70;;;;;;;3.75;85.17;100405.63;5131422;28;20274;-59
2022/01/16 01:10:37;;;;;;;10.57;7.33;;;;;;;3.81;85.40;100421.13;5131213;28;20302;-60
2022/01/16 01:13:10;;;;;;;10.43;7.30;;;;;;;3.68;85.24;100403.81;5131333;28;20198;-59
2022/01/16 01:15:42;;;;;;;11.43;7.17;;;;;;;3.68;85.55;100414.09;5132589;27;20658;-59
2022/01/16 01:18:10;;;;;;;8.83;7.07;;;;;;;3.65;85.09;100396.94;5135606;27;20193;-59
2022/01/16 01:20:40;;;;;;;10.10;6.93;;;;;;;3.81;84.95;100421.13;5135502;27;20196;-59
2022/01/16 01:23:08;;;;;;;10.70;7.40;;;;;;;3.72;84.49;100410.75;5135459;27;20695;-60
2022/01/16 01:25:36;;;;;;;11.87;7.43;;;;;;;3.84;83.71;100413.44;5135410;27;20285;-59
2022/01/16 01:28:03;;;;;;;8.07;6.40;;;;;;;3.93;83.85;100426.41;5134903;27;20229;-59
2022/01/16 01:30:30;;;;;;;8.23;6.40;;;;;;;3.99;82.75;100447.03;5135175;27;20204;-59
2022/01/16 01:32:58;;;;;;;9.40;6.60;;;;;;;4.03;83.02;100440.22;5135223;27;20236;-59
2022/01/16 01:35:26;;;;;;;8.77;6.63;;;;;;;3.99;82.70;100442.75;5135350;27;20198;-59
2022/01/16 01:37:55;;;;;;;11.57;7.17;;;;;;;4.07;82.20;100435.13;5135041;27;20194;-58
2022/01/16 01:40:24;;;;;;;8.80;5.97;;;;;;;3.92;83.10;100440.09;5135161;27;20197;-59
2022/01/16 01:43:04;;;;;;;6.70;6.10;;;;;;;3.93;82.84;100458.09;5134937;27;20293;-59
2022/01/16 01:51:10;;;;;;;7.53;6.20;;;;;;;3.94;82.46;100459.84;5134829;27;20323;-54
2022/01/16 01:53:40;;;;;;;8.50;6.23;;;;;;;3.97;82.20;100471.81;5134652;27;20319;-54
2022/01/16 01:56:08;;;;;;;7.33;6.37;;;;;;;3.94;82.11;100464.09;5134575;27;20649;-54
2022/01/16 01:58:36;;;;;;;9.07;6.83;;;;;;;3.87;83.01;100459.72;5134351;27;20263;-55
2022/01/16 02:01:04;;;;;;;10.87;6.67;;;;;;;3.79;82.63;100464.75;5134434;27;20190;-55
2022/01/16 02:03:42;;;;;;;7.20;6.47;;;;;;;3.82;83.18;100463.94;5134592;27;20593;-55
2022/01/16 02:06:10;;;;;;;8.20;6.40;;;;;;;3.82;82.73;100479.34;5134299;27;20233;-54
2022/01/16 02:08:39;;;;;;;9.17;6.47;;;;;;;3.73;82.97;100448.38;5134158;27;20234;-54
2022/01/16 02:11:05;;;;;;;9.67;6.80;;;;;;;3.69;82.79;100441.50;5134080;27;20217;-54
2022/01/16 02:13:44;;;;;;;8.13;6.40;;;;;;;3.84;82.63;100478.50;5134232;27;20228;-55
2022/01/16 02:33:00;;;;;;;13.57;6.60;;;;;;;3.41;84.09;100471.88;5134091;27;20196;-58
2022/01/16 02:35:26;;;;;;;10.17;6.87;;;;;;;3.44;84.58;100459.09;5134106;27;20269;-60
2022/01/16 02:37:53;;;;;;;7.80;6.60;;;;;;;3.44;83.83;100461.69;5134031;27;20198;-59
2022/01/16 02:40:25;;;;;;;11.37;7.30;;;;;;;3.38;84.31;100456.47;5133842;27;20201;-59
2022/01/16 02:42:52;;;;;;;8.37;7.33;;;;;;;3.26;84.67;100474.25;5133902;27;20258;-59
2022/01/16 02:45:32;;;;;;;8.40;7.07;;;;;;;3.02;85.56;100425.09;5133911;27;20260;-59
2022/01/16 02:48:01;;;;;;;10.03;6.77;;;;;;;3.24;85.92;100450.25;5133866;27;20794;-60
2022/01/16 02:50:29;;;;;;;13.63;7.93;;;;;;;3.16;84.65;100426.19;5133591;27;20199;-60
2022/01/16 02:52:57;;;;;;;11.40;6.87;;;;;;;3.28;85.05;100459.69;5133643;27;20733;-62
2022/01/16 02:55:25;;;;;;;13.03;7.70;;;;;;;3.27;84.72;100445.19;5133600;27;20202;-59
2022/01/16 02:57:54;;;;;;;12.67;7.67;;;;;;;3.28;85.04;100444.31;5133750;27;20637;-59
2022/01/16 03:00:22;;;;;;;12.17;7.33;;;;;;;3.32;85.23;100463.19;5133592;27;20215;-55
2022/01/16 03:02:50;;;;;;;11.77;8.10;;;;;;;3.31;84.33;100454.63;5133242;27;20215;-55
2022/01/16 03:05:17;;;;;;;11.83;7.73;;;;;;;3.22;85.16;100444.22;5133091;27;20350;-53
2022/01/16 03:07:45;;;;;;;13.77;7.93;;;;;;;3.26;84.54;100433.19;5133341;27;20691;-55
2022/01/16 03:13:11;;;;;;;10.93;7.43;;;;;;;3.30;83.71;100424.69;5108296;27;20537;-55
2022/01/16 03:15:39;;;;;;;9.10;7.13;;;;;;;3.42;83.88;100434.25;5107852;28;20216;-54
2022/01/16 03:23:35;;;;;;;11.77;7.90;;;;;;;3.45;83.54;100427.47;5108252;28;20197;-54
2022/01/16 03:26:02;;;;;;;10.47;7.43;;;;;;;3.40;83.63;100421.41;5108063;28;20744;-55
2022/01/16 03:28:31;;;;;;;8.00;7.07;;;;;;;3.39;83.95;100447.03;5107731;28;20283;-54
2022/01/16 03:30:57;;;;;;;10.00;7.00;;;;;;;3.50;83.88;100451.50;5107856;28;20256;-55
2022/01/16 03:33:24;;;;;;;10.07;7.27;;;;;;;3.51;83.10;100450.66;5107753;28;20228;-54
2022/01/16 03:35:52;;;;;;;8.90;6.80;;;;;;;3.46;83.02;100467.69;5107650;28;20201;-54
2022/01/16 03:38:19;;;;;;;15.70;7.60;;;;;;;3.33;83.73;100436.69;5107683;28;20313;-55
2022/01/16 03:40:46;;;;;;;7.90;6.67;;;;;;;3.47;83.87;100456.59;5107537;28;20564;-54
2022/01/16 03:43:14;;;;;;;9.23;6.70;;;;;;;3.35;83.70;100464.09;5107520;28;20197;-54
2022/01/16 03:45:45;;;;;;;10.77;7.00;;;;;;;3.31;83.94;100475.16;5107765;28;20217;-55
2022/01/16 03:48:12;;;;;;;8.20;6.70;;;;;;;3.27;83.74;100473.41;5107466;28;20239;-54
2022/01/16 03:50:39;;;;;;;10.87;6.77;;;;;;;3.15;83.70;100468.06;5107681;28;20240;-54
2022/01/16 03:53:06;;;;;;;9.77;6.80;;;;;;;3.21;83.92;100479.28;5107387;28;20228;-53
2022/01/16 03:55:34;;;;;;;8.67;6.60;;;;;;;3.23;84.08;100487.00;5107361;28;20201;-54
2022/01/16 03:58:01;;;;;;;11.40;6.60;;;;;;;3.17;83.64;100486.88;5107390;28;20197;-54
2022/01/16 04:00:28;;;;;;;11.93;6.97;;;;;;;3.12;83.75;100483.41;5107405;28;20728;-53
2022/01/16 04:02:57;;;;;;;9.83;7.37;;;;;;;3.09;83.31;100491.91;5107181;28;20209;-53
2022/01/16 04:05:24;;;;;;;7.87;6.17;;;;;;;3.15;83.47;100498.84;5107187;28;20199;-58
2022/01/16 04:07:51;;;;;;;7.07;6.07;;;;;;;3.05;83.15;100494.41;5107243;28;20223;-60
2022/01/16 04:10:20;;;;;;;7.83;6.20;;;;;;;3.05;83.27;100497.81;5107415;28;20733;-59
2022/01/16 04:12:48;;;;;;;11.13;6.53;;;;;;;3.08;82.72;100497.88;5106836;28;20237;-59
2022/01/16 04:18:06;;;;;;;7.57;5.77;;;;;;;3.09;83.13;100499.59;5104936;28;20213;-59
2022/01/16 04:20:34;;;;;;;10.40;6.50;;;;;;;2.98;83.32;100506.25;5106976;28;20205;-59
2022/01/16 04:23:03;;;;;;;7.00;5.80;;;;;;;3.10;82.83;100495.31;5101876;28;20787;-60
2022/01/16 04:25:30;;;;;;;12.10;6.43;;;;;;;3.09;82.91;100498.72;5093493;28;20193;-59
2022/01/16 04:27:57;;;;;;;7.73;6.30;;;;;;;2.97;82.95;100504.50;5093458;28;20689;-59
2022/01/16 04:30:24;;;;;;;8.80;6.20;;;;;;;3.00;82.95;100504.56;5093401;28;20682;-59
2022/01/16 04:32:51;;;;;;;8.57;5.40;;;;;;;3.05;82.59;100502.09;5093117;28;20226;-59
2022/01/16 04:35:20;;;;;;;7.13;6.00;;;;;;;3.14;82.75;100507.38;5093520;28;20194;-59
2022/01/16 04:37:47;;;;;;;10.57;6.63;;;;;;;3.11;82.87;100505.63;5093156;28;20320;-59
2022/01/16 04:40:15;;;;;;;11.40;6.47;;;;;;;3.10;82.09;100513.28;5092946;28;20289;-59
2022/01/16 04:45:41;;;;;;;8.50;5.87;;;;;;;2.99;82.51;100507.09;5050821;28;20696;-60
2022/01/16 04:48:08;;;;;;;9.80;6.43;;;;;;;2.81;82.55;100505.97;5050753;28;20201;-60
2022/01/16 04:50:37;;;;;;;10.30;6.20;;;;;;;2.87;83.27;100521.44;5068841;28;20228;-60
2022/01/16 04:53:04;;;;;;;8.07;5.50;;;;;;;3.01;82.87;100511.44;5092765;28;20316;-60
2022/01/16 04:55:30;;;;;;;7.30;5.77;;;;;;;2.95;82.91;100500.19;5092899;28;20280;-55
2022/01/16 04:57:57;;;;;;;7.17;5.60;;;;;;;2.84;83.64;100498.28;5092512;28;20231;-55
2022/01/16 05:00:24;;;;;;;9.70;6.10;;;;;;;2.73;83.61;100504.06;5092770;28;20261;-54
2022/01/16 05:02:51;;;;;;;9.00;6.30;;;;;;;2.65;84.59;100518.44;5092512;28;20204;-54
2022/01/16 05:05:18;;;;;;;8.20;5.57;;;;;;;2.65;84.34;100510.75;5092513;28;20703;-55
2022/01/16 05:07:46;;;;;;;7.93;5.93;;;;;;;2.73;84.80;100515.19;5092478;28;20654;-55
2022/01/16 05:10:14;;;;;;;6.80;5.93;;;;;;;2.70;84.73;100515.16;5092392;28;20287;-54
2022/01/16 05:12:44;;;;;;;9.77;6.03;;;;;;;2.52;85.45;100507.97;5092205;28;20232;-60
2022/01/16 05:17:56;;;;;;;10.43;6.57;;;;;;;2.51;85.47;100515.59;5092521;28;20326;-59
2022/01/16 05:20:23;;;;;;;8.97;6.40;;;;;;;2.51;85.98;100518.16;5092235;28;20209;-60
2022/01/16 05:22:52;;;;;;;8.53;6.37;;;;;;;2.39;86.65;100508.53;5092097;28;20294;-60
2022/01/16 05:25:19;;;;;;;8.53;7.17;;;;;;;2.41;87.00;100511.13;5092497;28;20228;-60
2022/01/16 05:27:46;;;;;;;8.03;6.80;;;;;;;2.35;87.18;100514.47;5092530;28;20300;-60
2022/01/16 05:30:13;;;;;;;9.07;6.93;;;;;;;2.39;88.00;100513.66;5092241;28;20195;-60
2022/01/16 05:32:40;;;;;;;10.33;7.20;;;;;;;2.39;87.20;100517.94;5091838;28;20221;-59
2022/01/16 05:35:09;;;;;;;14.60;7.13;;;;;;;2.42;87.87;100518.00;5091077;28;20228;-60
2022/01/16 05:37:36;;;;;;;10.13;7.40;;;;;;;2.27;88.62;100507.44;5091917;28;20676;-60
2022/01/16 05:40:06;;;;;;;9.70;7.13;;;;;;;2.29;88.50;100521.13;5091855;28;20201;-60
2022/01/16 05:42:33;;;;;;;10.27;7.37;;;;;;;2.18;89.73;100524.34;5091548;28;20189;-60
2022/01/16 05:45:00;;;;;;;13.13;7.83;;;;;;;2.26;88.91;100528.78;5091129;28;20616;-60
2022/01/16 05:47:27;;;;;;;12.03;8.50;;;;;;;2.24;89.36;100528.75;5091207;28;20193;-60
2022/01/16 05:49:54;;;;;;;11.70;7.80;;;;;;;2.06;89.44;100502.72;5090922;28;20232;-59
2022/01/16 05:52:21;;;;;;;12.60;7.80;;;;;;;2.21;90.00;100527.81;5091468;28;20221;-59
2022/01/16 05:54:48;;;;;;;11.10;7.93;;;;;;;2.38;88.74;100536.69;5091392;28;20746;-59
2022/01/16 05:57:16;;;;;;;13.17;7.97;;;;;;;2.23;89.56;100541.50;5091798;28;20286;-59
2022/01/16 05:59:43;;;;;;;10.77;7.60;;;;;;;2.29;90.20;100552.75;5091080;28;20207;-61
2022/01/16 06:02:11;;;;;;;11.83;7.83;;;;;;;2.30;89.87;100543.38;5091383;28;20197;-62
2022/01/16 06:04:37;;;;;;;13.13;7.33;;;;;;;2.31;89.82;100545.09;5091545;28;20687;-63
2022/01/16 06:07:05;;;;;;;9.90;7.63;;;;;;;2.43;89.29;100547.91;5091430;28;20197;-62
2022/01/16 06:09:32;;;;;;;10.20;7.90;;;;;;;2.49;89.11;100540.34;5091653;28;20248;-62
2022/01/16 06:11:59;;;;;;;9.13;7.03;;;;;;;2.59;87.65;100542.28;5090245;28;20233;-59
2022/01/16 06:14:28;;;;;;;10.37;7.07;;;;;;;2.71;87.72;100557.84;5091208;28;20239;-59
2022/01/16 06:16:55;;;;;;;9.00;7.30;;;;;;;2.74;87.88;100563.06;5090931;28;20251;-60
2022/01/16 06:19:22;;;;;;;12.57;7.37;;;;;;;2.79;87.53;100564.03;5091134;28;20202;-59
2022/01/16 06:21:49;;;;;;;10.83;8.03;;;;;;;2.95;86.36;100557.47;5091184;28;20200;-61
2022/01/16 06:24:17;;;;;;;10.47;7.07;;;;;;;2.94;86.27;100573.69;5090613;28;20205;-59
2022/01/16 06:26:44;;;;;;;11.33;7.37;;;;;;;2.95;86.85;100569.41;5090430;28;20202;-60
2022/01/16 06:29:11;;;;;;;9.40;7.27;;;;;;;3.05;86.72;100574.75;5090946;28;20197;-60
2022/01/16 06:31:40;;;;;;;9.47;7.60;;;;;;;3.05;86.55;100573.91;5090895;28;20281;-60
2022/01/16 06:34:07;;;;;;;11.13;7.50;;;;;;;3.00;87.00;100590.91;5090966;28;20201;-59
2022/01/16 06:36:35;;;;;;;10.53;7.23;;;;;;;3.09;87.04;100601.31;5090974;28;20195;-59
2022/01/16 06:39:04;;;;;;;9.57;7.57;;;;;;;3.20;86.75;100600.69;5090915;28;20202;-59
2022/01/16 06:41:31;;;;;;;9.03;7.43;;;;;;;3.16;86.54;100591.19;5091011;28;20766;-59
2022/01/16 06:43:58;;;;;;;10.90;7.30;;;;;;;3.07;86.29;100591.03;5090865;28;20674;-59
2022/01/16 06:46:25;;;;;;;10.20;7.47;;;;;;;3.20;86.90;100605.81;5090700;28;20291;-59
2022/01/16 06:48:54;;;;;;;12.00;7.10;;;;;;;3.24;87.08;100614.44;5090895;28;20205;-59
2022/01/16 06:51:23;;;;;;;12.00;7.93;;;;;;;3.26;87.33;100610.22;5090957;28;20202;-59
2022/01/16 06:53:53;;;;;;;10.33;7.70;;;;;;;3.24;87.74;100612.75;5090837;28;20228;-59
2022/01/16 06:56:20;;;;;;;12.97;8.00;;;;;;;3.31;88.06;100613.72;5090864;28;20205;-59
2022/01/16 06:58:47;;;;;;;12.20;7.80;;;;;;;3.17;88.04;100582.66;5090856;28;20289;-59
2022/01/16 07:01:14;;;;;;;15.90;8.43;;;;;;;3.29;88.66;100610.25;5090261;28;20545;-60
2022/01/16 07:03:42;;;;;;;11.40;8.47;;;;;;;3.38;88.42;100620.69;5090351;28;20202;-60
2022/01/16 07:06:10;;;;;;;9.97;7.73;;;;;;;3.44;88.30;100619.94;5090490;28;20194;-60
2022/01/16 07:08:37;;;;;;;11.57;7.73;;;;;;;3.35;89.04;100628.34;5087898;28;20306;-60
2022/01/16 07:11:04;;;;;;;10.60;8.23;;;;;;;3.39;89.05;100635.22;5090222;28;20264;-60
2022/01/16 07:13:31;;;;;;;10.90;8.60;;;;;;;3.54;88.53;100642.34;5088469;28;20223;-60
2022/01/16 07:15:58;;;;;;;12.17;8.00;;;;;;;3.57;87.70;100644.97;5089689;28;20301;-59
2022/01/16 07:18:26;;;;;;;9.77;8.17;;;;;;;3.42;87.77;100625.03;5090242;28;20215;-60
2022/01/16 07:20:53;;;;;;;12.73;8.70;;;;;;;3.53;88.47;100651.75;5090425;28;20202;-60
2022/01/16 07:23:22;;;;;;;11.53;9.03;;;;;;;3.56;88.19;100656.94;5090662;28;20198;-61
2022/01/16 07:25:50;;;;;;;12.73;9.17;;;;;;;3.67;88.37;100648.56;5090061;28;20194;-59
2022/01/16 07:28:17;;;;;;;15.17;10.47;;;;;;;3.64;88.83;100645.09;5090340;28;20203;-60
2022/01/16 07:30:44;;;;;;;16.57;10.27;;;;;;;3.48;89.33;100632.84;5089147;28;20192;-59
2022/01/16 07:33:11;;;;;;;19.63;11.17;;;;;;;3.56;89.60;100631.28;5089749;28;20651;-60
2022/01/16 07:35:39;;;;;;;15.97;10.87;;;;;;;3.76;89.59;100647.00;5089979;28;20199;-60
2022/01/16 07:38:08;;;;;;;15.77;10.90;;;;;;;3.81;89.81;100654.81;5089704;28;20222;-59
2022/01/16 07:40:37;;;;;;;15.43;11.57;;;;;;;3.80;90.38;100660.78;5089807;28;20210;-60
2022/01/16 07:43:05;;;;;;;17.20;10.73;;;;;;;3.80;90.55;100665.91;5089455;28;20192;-59
2022/01/16 07:45:32;;;;;;;17.93;10.73;;;;;;;3.76;90.58;100659.84;5089819;28;20201;-60
2022/01/16 07:47:58;;;;;;;22.20;12.27;;;;;;;3.73;91.28;100664.06;5090380;28;20691;-60
2022/01/16 07:50:26;;;;;;;19.53;12.53;;;;;;;3.67;91.61;100654.56;5090669;28;20209;-62
2022/01/16 07:52:53;;;;;;;16.50;11.57;;;;;;;3.75;91.54;100662.38;5086100;28;20759;-61
2022/01/16 07:55:22;;;;;;;19.33;12.23;;;;;;;3.68;91.82;100665.69;5070159;28;20307;-61
2022/01/16 07:57:52;;;;;;;17.87;12.20;;;;;;;3.69;91.85;100662.28;5069676;28;20220;-60
2022/01/16 08:00:20;;;;;;;20.90;12.83;;;;;;;3.69;92.48;100667.44;5073226;28;20216;-59
2022/01/16 08:02:48;;;;;;;16.40;11.83;;;;;;;3.76;92.74;100664.13;5090950;28;20218;-60
2022/01/16 08:05:15;;;;;;;16.40;11.77;;;;;;;3.85;92.22;100661.69;5092166;28;20221;-61
2022/01/16 08:07:42;;;;;;;20.83;12.03;;;;;;;3.84;92.50;100658.25;5092711;28;20226;-61
2022/01/16 08:10:10;;;;;;;18.07;11.70;;;;;;;3.80;92.79;100659.06;5093252;28;20306;-60
2022/01/16 08:12:37;;;;;;;18.23;12.20;;;;;;;3.84;93.29;100663.41;5091712;28;20234;-60
2022/01/16 08:15:08;;;;;;;16.63;11.93;;;;;;;3.90;92.96;100645.53;5089906;28;20201;-61
2022/01/16 08:17:36;;;;;;;18.73;12.77;;;;;;;3.89;92.73;100640.38;5092278;28;20188;-60
2022/01/16 08:20:04;;;;;;;18.43;12.03;;;;;;;3.86;92.80;100643.75;5089572;28;20223;-61
2022/01/16 08:22:31;;;;;;;16.20;12.10;;;;;;;3.97;92.21;100646.50;5091411;28;20277;-60
2022/01/16 08:24:58;;;;;;;16.83;12.03;;;;;;;4.01;92.21;100641.44;5091622;28;21469;-61
2022/01/16 08:27:25;;;;;;;20.00;12.50;;;;;;;4.08;91.81;100646.66;5088835;28;20214;-56
2022/01/16 08:29:52;;;;;;;17.73;11.67;;;;;;;4.04;92.02;100653.47;5090965;28;20219;-55
2022/01/16 08:32:20;;;;;;;17.10;11.33;;;;;;;4.12;91.70;100651.00;5091022;28;20205;-55
2022/01/16 08:34:48;;;;;;;21.03;13.07;;;;;;;4.17;92.24;100636.53;5091658;28;20206;-56
2022/01/16 08:37:14;;;;;;;16.93;11.93;;;;;;;4.15;92.42;100633.94;5091900;28;20201;-55
2022/01/16 08:39:41;;;;;;;16.07;11.93;;;;;;;4.17;93.76;100636.53;5091954;28;20202;-54
2022/01/16 08:42:09;;;;;;;20.30;12.73;;;;;;;4.19;93.74;100640.84;5092690;28;20595;-56
2022/01/16 08:44:38;;;;;;;19.53;12.30;;;;;;;4.21;93.11;100633.16;5092664;28;20198;-56
2022/01/16 08:47:06;;;;;;;19.07;12.97;;;;;;;4.32;93.29;100636.75;5092607;28;20292;-56
2022/01/16 08:49:34;;;;;;;30.93;13.90;;;;;;;4.33;92.91;100634.19;5092552;28;20195;-53
2022/01/16 08:52:01;;;;;;;22.40;15.23;;;;;;;4.34;92.86;100635.94;5092688;28;20202;-55
2022/01/16 08:54:28;;;;;;;20.90;13.83;;;;;;;4.42;92.82;100640.31;5091397;28;20215;-55
2022/01/16 08:56:55;;;;;;;19.87;13.70;;;;;;;4.42;92.82;100632.59;5091446;28;20198;-54
2022/01/16 08:59:22;;;;;;;20.53;13.53;;;;;;;4.53;93.56;100631.03;5091580;28;20275;-55
2022/01/16 09:01:49;;;;;;;19.17;13.33;;;;;;;4.60;93.06;100618.31;5092280;28;20297;-55
2022/01/16 09:04:16;;;;;;;23.07;14.47;;;;;;;4.72;93.06;100633.03;5091048;28;20684;-56
2022/01/16 09:06:44;;;;;;;21.17;13.93;;;;;;;4.77;93.06;100623.63;5090954;28;20291;-55
2022/01/16 09:09:12;;;;;;;21.40;14.33;;;;;;;4.86;93.81;100613.44;5091022;28;20191;-54
2022/01/16 09:11:39;;;;;;;19.13;13.43;;;;;;;4.85;92.35;100616.03;5091486;28;20296;-55
2022/01/16 09:14:06;;;;;;;18.97;13.37;;;;;;;4.97;91.09;100619.59;5091740;28;20660;-55
2022/01/16 09:16:33;;;;;;;20.20;12.97;;;;;;;5.01;90.71;100621.38;5092005;28;20233;-54
2022/01/16 09:19:00;;;;;;;22.33;14.37;;;;;;;5.05;91.89;100617.13;5092329;28;20660;-56
2022/01/16 09:21:28;;;;;;;22.50;15.23;;;;;;;5.13;91.56;100614.63;5081405;28;20230;-55
2022/01/16 09:23:56;;;;;;;20.27;14.80;;;;;;;5.25;89.62;100605.31;5071642;28;20614;-54
2022/01/16 09:26:25;;;;;;;23.37;15.23;;;;;;;5.30;90.01;100607.97;5074085;28;20219;-54
2022/01/16 09:28:52;;;;;;;21.90;14.03;;;;;;;5.20;90.90;100601.81;5091168;28;20225;-55
2022/01/16 09:31:20;;;;;;;26.33;14.80;;;;;;;5.26;90.73;100591.59;5090352;28;20212;-55
2022/01/16 09:33:47;;;;;;;17.20;12.67;;;;;;;5.41;88.55;100590.91;5091477;28;20219;-54
2022/01/16 09:36:14;;;;;;;18.33;13.33;;;;;;;5.34;89.45;100594.25;5091568;28;20230;-55
2022/01/16 09:38:41;;;;;;;15.30;11.63;;;;;;;5.32;87.47;100596.81;5091770;28;20575;-56
2022/01/16 09:41:10;;;;;;;18.63;11.90;;;;;;;5.35;86.76;100594.25;5090526;28;20606;-54
2022/01/16 09:43:38;;;;;;;16.17;11.20;;;;;;;5.41;86.18;100593.47;5091522;28;20199;-54
2022/01/16 09:46:06;;;;;;;16.03;11.17;;;;;;;5.33;85.71;100575.34;5091154;28;20206;-55
2022/01/16 09:48:33;;;;;;;15.47;11.33;;;;;;;5.55;86.08;100583.28;5091212;28;20199;-54
2022/01/16 09:50:59;;;;;;;20.67;11.70;;;;;;;5.60;85.78;100577.31;5091449;28;20199;-56
2022/01/16 09:53:27;;;;;;;20.13;12.30;;;;;;;5.54;85.95;100577.25;5091370;28;20300;-56
2022/01/16 09:55:54;;;;;;;18.90;12.13;;;;;;;5.58;86.34;100570.44;5090961;28;20204;-55
2022/01/16 09:58:23;;;;;;;19.20;12.03;;;;;;;5.72;85.57;100568.84;5091323;28;20713;-55
2022/01/16 10:00:51;;;;;;;17.33;11.73;;;;;;;5.81;84.45;100569.75;5091074;28;20195;-53
2022/01/16 10:03:40;;;;;;;12.47;10.40;;;;;;;5.71;83.81;100565.41;5091072;28;20191;-55
2022/01/16 10:06:13;;;;;;;13.30;10.73;;;;;;;5.68;84.38;100570.50;5068896;28;20225;-55
2022/01/16 10:08:41;;;;;;;16.37;11.47;;;;;;;5.77;83.67;100564.56;5078956;28;20227;-55
2022/01/16 10:11:28;;;;;;;16.17;11.30;;;;;;;5.85;83.11;100560.34;5089296;28;20322;-54
2022/01/16 10:14:01;;;;;;;16.17;11.53;;;;;;;5.86;83.76;100563.78;5090055;28;20223;-54
2022/01/16 10:16:30;;;;;;;17.20;12.37;;;;;;;5.91;83.47;100567.28;5091374;28;20200;-55
2022/01/16 10:18:57;;;;;;;17.67;11.90;;;;;;;6.00;82.36;100570.78;5090767;28;20700;-55
2022/01/16 10:21:39;;;;;;;15.70;10.87;;;;;;;6.00;81.26;100562.19;5090453;28;20317;-56
2022/01/16 10:24:23;;;;;;;16.83;10.37;;;;;;;6.00;80.17;100557.03;5085386;28;20197;-60
2022/01/16 10:27:12;;;;;;;12.53;9.70;;;;;;;6.00;80.16;100551.88;5082603;28;20207;-58
2022/01/16 10:29:42;;;;;;;14.57;9.80;;;;;;;6.13;80.70;100551.09;5080203;28;20203;-59
2022/01/16 10:32:15;;;;;;;14.47;9.90;;;;;;;6.14;80.34;100539.94;5084218;28;20207;-60
2022/01/16 10:34:43;;;;;;;14.70;10.73;;;;;;;6.20;79.76;100542.56;5070221;28;20721;-59
2022/01/16 10:37:27;;;;;;;13.57;9.37;;;;;;;6.21;80.28;100544.25;5070219;28;20207;-60
2022/01/16 10:40:00;;;;;;;13.23;10.13;;;;;;;6.22;80.17;100529.66;5070002;28;20287;-60
2022/01/16 10:42:29;;;;;;;11.63;9.70;;;;;;;6.38;79.61;100528.88;5070134;28;20286;-59
2022/01/16 10:45:01;;;;;;;19.40;10.40;;;;;;;6.37;78.63;100522.88;5070435;28;20200;-59
2022/01/16 10:47:34;;;;;;;11.70;9.57;;;;;;;6.41;79.27;100526.31;5070218;28;20210;-60
2022/01/16 10:50:07;;;;;;;12.47;9.97;;;;;;;6.37;77.96;100517.72;5070211;28;20723;-61
2022/01/16 10:52:34;;;;;;;14.37;10.37;;;;;;;6.39;78.77;100518.56;5070624;28;20589;-59
2022/01/16 10:55:09;;;;;;;14.77;10.80;;;;;;;6.30;79.49;100510.81;5070189;28;20259;-60
2022/01/16 10:57:37;;;;;;;17.30;11.23;;;;;;;6.27;81.22;100505.63;5070285;28;20203;-60
2022/01/16 11:00:15;;;;;;;13.10;9.43;;;;;;;6.40;78.76;100502.25;5070581;28;20231;-60
2022/01/16 11:02:44;;;;;;;12.73;9.20;;;;;;;6.40;77.94;100503.97;5070176;28;20691;-60
2022/01/16 11:05:13;;;;;;;12.83;9.27;;;;;;;6.49;77.73;100498.84;5088294;28;20199;-60
2022/01/16 11:07:41;;;;;;;16.13;11.97;;;;;;;6.37;80.45;100489.34;5090605;28;20195;-60
2022/01/16 11:10:26;;;;;;;17.00;10.20;;;;;;;6.37;79.28;100498.78;5090189;28;20227;-54
2022/01/16 11:12:54;;;;;;;13.80;9.33;;;;;;;6.48;78.16;100495.41;5090005;28;20234;-54
2022/01/16 11:15:23;;;;;;;9.67;8.67;;;;;;;6.56;75.58;100498.84;5082970;28;20610;-55
2022/01/16 11:17:50;;;;;;;13.07;10.17;;;;;;;6.66;75.44;100498.91;5089522;28;20727;-56
2022/01/16 11:20:23;;;;;;;10.70;8.77;;;;;;;6.51;75.28;100464.47;5090034;28;20285;-54
2022/01/16 11:23:02;;;;;;;11.07;9.07;;;;;;;6.78;75.10;100486.00;5089804;28;20199;-54
2022/01/16 11:25:33;;;;;;;13.40;8.77;;;;;;;6.80;74.68;100490.31;5090091;28;20554;-54
2022/01/16 11:28:03;;;;;;;13.83;9.37;;;;;;;6.78;74.37;100492.03;5081743;28;20231;-59
2022/01/16 11:30:33;;;;;;;11.50;9.53;;;;;;;6.83;74.75;100489.47;5088805;28;20348;-54
2022/01/16 11:33:01;;;;;;;11.23;9.10;;;;;;;6.85;74.46;100488.63;5089801;28;20427;-55
2022/01/16 11:35:29;;;;;;;10.67;9.10;;;;;;;6.86;74.93;100487.78;5077686;28;20246;-59
2022/01/16 11:37:57;;;;;;;12.23;9.67;;;;;;;6.83;74.15;100479.16;5077829;28;20222;-55
2022/01/16 11:40:29;;;;;;;44.57;19.33;;;;;;;6.89;77.32;100476.56;5092090;28;20213;-55
2022/01/16 11:43:23;;;;;;;62.37;23.53;;;;;;;6.92;77.59;100474.00;5093799;28;20592;-54
2022/01/16 11:46:03;;;;;;;18.53;11.53;;;;;;;6.93;74.41;100468.84;5093432;28;20202;-54
2022/01/16 11:48:56;;;;;;;13.13;9.93;;;;;;;6.94;74.41;100477.44;5093340;28;20203;-56
2022/01/16 11:52:02;;;;;;;12.17;9.40;;;;;;;6.93;73.15;100470.56;5093646;28;20663;-55
2022/01/16 11:54:45;;;;;;;14.80;10.30;;;;;;;6.98;72.23;100461.13;5093577;28;20225;-55
2022/01/16 11:57:31;;;;;;;11.13;8.83;;;;;;;6.84;71.88;100453.34;5092540;28;20289;-55
2022/01/16 12:00:10;;;;;;;11.07;9.50;;;;;;;6.75;73.17;100453.34;5093460;28;20245;-54
2022/01/16 12:02:41;;;;;;;11.43;9.70;;;;;;;6.82;72.92;100456.78;5093705;28;20199;-55
2022/01/16 12:05:09;;;;;;;17.33;10.20;;;;;;;6.70;73.63;100423.22;5093368;28;20298;-55
2022/01/16 12:07:48;;;;;;;12.87;9.27;;;;;;;6.96;73.84;100449.91;5090825;28;20192;-55
2022/01/16 12:10:55;;;;;;;11.43;8.97;;;;;;;7.02;72.87;100444.75;5093235;28;20666;-54
2022/01/16 12:13:53;;;;;;;9.83;8.40;;;;;;;7.06;71.74;100443.91;5091804;28;20268;-55